Time;durP1;ratioP1;P1;durP2;ratioP2;P2;SDS_P1;SDS_P2;PMS_P1;PMS_P2;Temp;Humidity;BMP_temperature;BMP_pressure;BME280_temperature;BME280_humidity;BME280_pressure;Samples;Min_cycle;Max_cycle;Signal;HPM_P1;HPM_P2
2021/10/13 00:02:22;;;;;;;9.50;3.10;;;11.40;99.90;;;;;;5116983;22;20038;-88
2021/10/13 00:05:00;;;;;;;10.23;2.90;;;11.30;99.90;;;;;;5072260;28;20028;-89
2021/10/13 00:07:46;;;;;;;17.55;4.18;;;11.20;99.90;;;;;;5052059;28;20045;-88
2021/10/13 00:10:42;;;;;;;6.57;2.25;;;11.30;99.90;;;;;;5029082;28;20037;-87
2021/10/13 00:13:38;;;;;;;6.30;2.92;;;11.20;99.90;;;;;;5050998;28;20026;-90
2021/10/13 00:17:10;;;;;;;7.28;2.22;;;11.30;99.90;;;;;;5025074;28;20054;-87
2021/10/13 00:20:14;;;;;;;6.55;2.65;;;11.30;99.90;;;;;;5084476;23;20040;-89
2021/10/13 00:23:21;;;;;;;11.10;2.55;;;11.30;99.90;;;;;;5128927;22;20033;-88
2021/10/13 00:30:46;;;;;;;4.80;2.00;;;11.70;99.90;;;;;;4998633;28;20049;-87
2021/10/13 00:34:35;;;;;;;7.65;2.58;;;11.20;99.90;;;;;;5010049;28;20057;-87
2021/10/13 00:51:40;;;;;;;;;;;;;;;;;;;;;
2021/10/13 00:55:56;;;;;;;11.60;3.08;;;10.40;99.90;;;;;;5020996;28;20053;-86
2021/10/13 00:59:39;;;;;;;6.25;3.17;;;11.30;99.90;;;;;;5031068;28;20060;-87
2021/10/13 01:04:15;;;;;;;7.43;2.60;;;10.30;99.90;;;;;;4979141;28;20124;-88
2021/10/13 01:08:10;;;;;;;8.13;2.67;;;10.20;99.90;;;;;;4995215;28;20064;-87
2021/10/13 01:11:59;;;;;;;;;;;;;;;;;;;;;
2021/10/13 01:25:25;;;;;;;8.98;3.63;;;10.10;99.90;;;;;;4891893;29;20053;-88
2021/10/13 01:30:18;;;;;;;;;;;;;;;;;;;;;
2021/10/13 01:52:22;;;;;;;7.93;3.03;;;8.80;99.90;;;;;;4870565;29;20049;-88
2021/10/13 02:00:17;;;;;;;;;;;;;;;;;;;;;
2021/10/13 02:04:06;;;;;;;5.80;3.03;;;8.70;99.90;;;;;;5095952;28;20067;-84
2021/10/13 02:07:41;;;;;;;7.10;3.20;;;8.70;99.90;;;;;;5057916;23;20030;-87
2021/10/13 02:10:25;;;;;;;10.80;3.20;;;8.60;99.90;;;;;;5091991;22;20041;-87
2021/10/13 02:13:17;;;;;;;4.95;3.33;;;8.70;99.90;;;;;;5023575;28;20060;-89
2021/10/13 02:16:27;;;;;;;8.57;2.95;;;8.50;99.90;;;;;;5019729;28;20059;-86
2021/10/13 02:19:37;;;;;;;14.02;3.78;;;8.50;99.90;;;;;;5026039;28;20032;-87
2021/10/13 02:22:28;;;;;;;6.47;2.83;;;8.40;99.90;;;;;;5022047;28;20041;-90
2021/10/13 02:25:49;;;;;;;9.43;3.17;;;9.70;99.90;;;;;;5020554;28;20051;-87
2021/10/13 02:29:00;;;;;;;11.95;3.47;;;8.30;99.90;;;;;;5023261;28;20061;-88
2021/10/13 02:31:53;;;;;;;5.60;3.00;;;8.30;99.90;;;;;;5046684;28;20065;-87
2021/10/13 02:34:48;;;;;;;4.47;2.88;;;9.50;99.90;;;;;;5027240;28;20072;-88
2021/10/13 02:37:52;;;;;;;7.32;2.92;;;8.20;99.90;;;;;;5039635;28;20056;-88
2021/10/13 02:40:55;;;;;;;9.48;3.13;;;8.10;99.90;;;;;;5020594;28;20036;-88
2021/10/13 02:44:01;;;;;;;6.43;2.75;;;7.60;99.90;;;;;;5046782;28;20033;-88
2021/10/13 02:47:39;;;;;;;6.93;3.70;;;8.70;99.90;;;;;;5030902;28;20045;-88
2021/10/13 02:51:30;;;;;;;4.55;2.72;;;7.90;99.90;;;;;;5029287;28;20042;-88
2021/10/13 02:54:33;;;;;;;7.32;3.10;;;7.90;99.90;;;;;;5002778;28;20255;-88
2021/10/13 02:57:53;;;;;;;9.52;4.35;;;8.10;99.90;;;;;;5039569;28;20033;-94
2021/10/13 03:00:57;;;;;;;5.00;2.55;;;7.90;99.90;;;;;;5025298;28;20053;-88
2021/10/13 03:04:21;;;;;;;7.38;2.90;;;7.80;99.90;;;;;;5034122;28;20063;-92
2021/10/13 03:07:38;;;;;;;9.20;3.35;;;7.70;99.90;;;;;;5037965;28;20227;-89
2021/10/13 03:10:22;;;;;;;15.20;4.93;;;7.70;99.90;;;;;;5028575;28;20060;-89
2021/10/13 03:12:59;;;;;;;8.07;3.05;;;7.70;99.90;;;;;;5005057;28;20045;-92
2021/10/13 03:16:00;;;;;;;12.98;3.30;;;7.70;99.90;;;;;;5036333;28;20052;-88
2021/10/13 03:18:38;;;;;;;10.68;3.25;;;7.60;99.90;;;;;;5014857;28;20049;-86
2021/10/13 03:21:12;;;;;;;5.57;2.75;;;7.50;99.90;;;;;;5004427;28;20058;-88
2021/10/13 03:24:53;;;;;;;9.68;3.03;;;8.50;99.90;;;;;;5071716;22;20049;-86
2021/10/13 03:27:39;;;;;;;8.02;2.75;;;7.50;99.90;;;;;;5001147;28;20410;-85
2021/10/13 03:30:35;;;;;;;6.82;2.85;;;7.70;99.90;;;;;;4997382;28;20057;-85
2021/10/13 03:33:40;;;;;;;;;;;;;;;;;;;;;
2021/10/13 03:37:55;;;;;;;9.90;2.92;;;7.00;99.90;;;;;;5038204;28;20399;-87
2021/10/13 03:40:39;;;;;;;6.03;2.70;;;7.40;99.90;;;;;;5007699;28;20049;-85
2021/10/13 03:43:11;;;;;;;9.88;3.70;;;7.30;99.90;;;;;;5018237;28;20050;-87
2021/10/13 03:46:04;;;;;;;11.35;4.20;;;7.50;99.90;;;;;;5011262;28;20049;-86
2021/10/13 03:49:17;;;;;;;9.48;3.83;;;7.40;99.90;;;;;;5034679;28;20053;-87
2021/10/13 03:52:48;;;;;;;7.47;3.47;;;7.30;99.90;;;;;;5006359;28;20063;-85
2021/10/13 03:55:52;;;;;;;9.43;4.00;;;7.30;99.90;;;;;;5006006;28;20046;-86
2021/10/13 03:58:45;;;;;;;10.27;3.33;;;7.20;99.90;;;;;;5025851;28;20049;-85
2021/10/13 04:02:36;;;;;;;12.70;2.92;;;7.20;99.90;;;;;;5049458;28;20050;-86
2021/10/13 04:06:18;;;;;;;6.82;2.70;;;7.30;99.90;;;;;;5015358;28;20064;-85
2021/10/13 04:09:35;;;;;;;10.95;5.72;;;7.30;99.90;;;;;;4996041;28;20047;-87
2021/10/13 04:14:16;;;;;;;7.63;3.17;;;7.40;99.90;;;;;;5036496;28;20657;-86
2021/10/13 04:21:40;;;;;;;8.77;3.50;;;7.20;99.90;;;;;;4993477;28;20046;-85
2021/10/13 04:24:44;;;;;;;8.30;4.03;;;7.50;99.90;;;;;;4973957;28;20057;-85
2021/10/13 04:27:43;;;;;;;15.38;6.82;;;7.10;99.90;;;;;;5000163;28;20046;-85
2021/10/13 04:34:31;;;;;;;6.47;3.92;;;7.20;99.90;;;;;;4997530;28;20050;-85
2021/10/13 04:37:41;;;;;;;9.27;3.83;;;5.80;99.90;;;;;;4976927;28;20042;-86
2021/10/13 04:40:14;;;;;;;13.05;6.78;;;7.00;99.90;;;;;;5119038;23;20917;-87
2021/10/13 04:43:33;;;;;;;10.57;3.60;;;7.10;99.90;;;;;;5058549;23;20037;-85
2021/10/13 04:47:28;;;;;;;11.40;5.45;;;7.00;99.90;;;;;;5050673;28;20056;-85
2021/10/13 04:51:40;;;;;;;8.82;4.15;;;7.10;99.90;;;;;;5036446;28;20045;-86
2021/10/13 04:54:53;;;;;;;9.52;4.90;;;6.90;99.90;;;;;;5023465;28;20045;-86
2021/10/13 04:58:28;;;;;;;12.25;4.45;;;6.90;99.90;;;;;;5079667;23;20041;-85
2021/10/13 05:01:02;;;;;;;13.73;5.20;;;6.90;99.90;;;;;;4990091;28;20062;-88
2021/10/13 05:04:00;;;;;;;10.75;4.18;;;6.90;99.90;;;;;;4992147;28;20056;-86
2021/10/13 05:07:15;;;;;;;11.60;5.82;;;6.90;99.90;;;;;;4990803;28;20062;-86
2021/10/13 05:10:01;;;;;;;15.10;5.00;;;6.90;99.90;;;;;;4976481;28;20050;-87
2021/10/13 05:13:11;;;;;;;7.40;4.07;;;6.90;99.90;;;;;;4997421;28;20042;-87
2021/10/13 05:16:21;;;;;;;17.92;3.90;;;6.80;99.90;;;;;;5018259;28;20054;-89
2021/10/13 05:19:08;;;;;;;11.48;4.63;;;6.90;99.90;;;;;;4996251;28;20050;-83
2021/10/13 05:21:43;;;;;;;16.65;5.30;;;6.90;99.90;;;;;;5010049;28;20062;-86
2021/10/13 05:24:27;;;;;;;9.93;4.80;;;6.90;99.90;;;;;;5028797;28;20058;-84
2021/10/13 05:27:38;;;;;;;9.07;4.47;;;6.90;99.90;;;;;;4999354;28;20056;-87
2021/10/13 05:30:12;;;;;;;11.05;6.28;;;6.90;99.90;;;;;;5003309;28;20065;-86
2021/10/13 05:32:46;;;;;;;11.85;5.13;;;6.90;99.90;;;;;;4982622;28;20048;-90
2021/10/13 05:35:49;;;;;;;9.50;4.68;;;6.80;99.90;;;;;;5000641;28;20040;-86
2021/10/13 05:38:23;;;;;;;12.95;4.88;;;7.90;99.90;;;;;;4976027;28;20052;-87
2021/10/13 05:42:00;;;;;;;14.60;5.18;;;5.50;99.90;;;;;;4993370;28;20053;-88
2021/10/13 05:44:48;;;;;;;11.68;5.35;;;6.80;99.90;;;;;;5020590;28;20050;-88
2021/10/13 05:47:40;;;;;;;12.20;5.68;;;6.80;99.90;;;;;;5013940;28;20379;-87
2021/10/13 05:55:16;;;;;;;9.75;4.88;;;7.60;99.90;;;;;;5030962;28;20052;-85
2021/10/13 05:58:44;;;;;;;12.05;5.40;;;6.80;99.90;;;;;;5031151;28;20048;-84
2021/10/13 06:02:01;;;;;;;12.00;6.30;;;7.10;99.90;;;;;;5046629;28;20044;-85
2021/10/13 06:04:36;;;;;;;9.15;4.78;;;6.80;99.90;;;;;;5028310;28;20045;-84
2021/10/13 06:07:12;;;;;;;14.02;5.32;;;6.90;99.90;;;;;;5049394;28;20436;-82
2021/10/13 06:10:27;;;;;;;19.55;7.30;;;7.00;99.90;;;;;;5049896;28;20118;-86
2021/10/13 06:12:59;;;;;;;16.60;7.00;;;7.20;99.90;;;;;;5079881;28;20486;-84
2021/10/13 06:16:29;;;;;;;17.35;5.43;;;7.20;99.90;;;;;;5038845;28;20049;-85
2021/10/13 06:19:21;;;;;;;10.40;5.38;;;7.30;99.90;;;;;;5027372;28;20056;-85
2021/10/13 06:26:31;;;;;;;12.30;6.20;;;7.30;99.90;;;;;;5074747;22;20053;-89
2021/10/13 06:29:35;;;;;;;17.50;5.15;;;7.50;99.90;;;;;;5030332;28;20052;-87
2021/10/13 06:32:29;;;;;;;13.57;5.28;;;9.20;99.90;;;;;;5028824;28;20047;-88
2021/10/13 06:35:30;;;;;;;12.07;6.22;;;7.70;99.90;;;;;;5001670;28;20057;-92
2021/10/13 06:38:29;;;;;;;23.33;7.70;;;7.80;99.90;;;;;;5040177;28;20057;-92
2021/10/13 06:41:00;;;;;;;17.65;6.63;;;7.90;99.90;;;;;;4992475;28;20063;-90
2021/10/13 06:44:00;;;;;;;13.88;5.60;;;9.40;99.90;;;;;;5027413;28;20045;-91
2021/10/13 06:46:42;;;;;;;13.15;6.05;;;8.00;99.90;;;;;;5012740;28;20056;-87
2021/10/13 06:49:12;;;;;;;15.77;6.47;;;8.10;99.90;;;;;;5011487;28;20042;-89
2021/10/13 06:51:42;;;;;;;12.63;5.68;;;8.10;99.90;;;;;;4985214;28;20058;-90
2021/10/13 06:54:10;;;;;;;17.50;7.07;;;8.30;99.90;;;;;;5013541;28;20049;-90
2021/10/13 06:56:53;;;;;;;24.90;6.97;;;8.40;99.90;;;;;;5006119;28;20049;-91
2021/10/13 06:59:22;;;;;;;21.30;7.63;;;8.40;99.90;;;;;;5019098;28;20046;-88
2021/10/13 07:01:55;;;;;;;16.88;6.00;;;8.40;99.90;;;;;;5015838;28;20057;-89
2021/10/13 07:04:38;;;;;;;16.90;7.07;;;8.60;99.90;;;;;;5015231;28;20053;-89
2021/10/13 07:07:07;;;;;;;14.25;5.20;;;9.00;99.90;;;;;;5010859;28;20393;-89
2021/10/13 07:09:36;;;;;;;14.70;5.90;;;8.70;99.90;;;;;;5020437;28;20053;-87
2021/10/13 07:12:09;;;;;;;11.68;4.82;;;8.80;99.90;;;;;;5020755;28;20052;-87
2021/10/13 07:14:37;;;;;;;13.60;6.45;;;8.90;99.90;;;;;;5020211;28;20060;-89
2021/10/13 07:17:11;;;;;;;12.23;5.60;;;8.90;99.90;;;;;;5049898;28;20060;-89
2021/10/13 07:19:46;;;;;;;15.32;6.03;;;9.00;99.90;;;;;;5049912;28;20520;-86
2021/10/13 07:22:23;;;;;;;13.05;5.65;;;9.10;99.90;;;;;;5020327;28;20051;-89
2021/10/13 07:25:08;;;;;;;15.52;5.93;;;9.70;99.90;;;;;;5028869;28;20072;-90
2021/10/13 07:27:39;;;;;;;;;;;9.20;99.90;;;;;;5066729;28;20067;-89
2021/10/13 07:30:11;;;;;;;16.80;5.75;;;9.30;99.90;;;;;;5023370;28;19929;-88
2021/10/13 07:32:39;;;;;;;18.58;5.20;;;9.30;99.90;;;;;;5009407;28;20053;-85
2021/10/13 07:35:45;;;;;;;13.98;6.68;;;10.30;99.90;;;;;;5018484;28;20064;-87
2021/10/13 07:38:16;;;;;;;16.48;5.40;;;9.50;99.90;;;;;;5026592;28;20052;-89
2021/10/13 07:40:45;;;;;;;14.90;5.78;;;9.40;99.90;;;;;;5024808;28;20046;-88
2021/10/13 07:43:15;;;;;;;14.63;5.65;;;9.60;99.90;;;;;;5025550;28;20049;-87
2021/10/13 07:45:43;;;;;;;14.30;5.65;;;9.60;99.90;;;;;;5036316;28;20048;-88
2021/10/13 07:48:14;;;;;;;12.50;5.43;;;9.70;99.90;;;;;;5035755;28;20057;-88
2021/10/13 07:50:43;;;;;;;12.65;5.80;;;10.00;99.90;;;;;;5072539;28;20037;-88
2021/10/13 07:53:11;;;;;;;12.05;6.00;;;9.80;99.90;;;;;;5009997;28;20039;-91
2021/10/13 07:55:45;;;;;;;17.15;6.35;;;9.90;99.90;;;;;;5044468;28;20059;-91
2021/10/13 07:58:32;;;;;;;12.52;5.88;;;9.80;99.90;;;;;;5025631;28;20041;-92
2021/10/13 08:01:45;;;;;;;15.90;5.65;;;10.00;99.90;;;;;;5022896;28;20041;-92
2021/10/13 08:04:31;;;;;;;12.68;5.38;;;10.00;99.90;;;;;;5041407;28;20289;-92
2021/10/13 08:10:09;;;;;;;12.07;4.97;;;10.10;99.90;;;;;;5016099;28;20054;-93
2021/10/13 08:12:42;;;;;;;13.60;6.50;;;10.20;99.90;;;;;;4989556;28;20056;-92
2021/10/13 08:15:13;;;;;;;17.13;6.75;;;10.30;99.90;;;;;;4976255;28;20058;-90
2021/10/13 08:17:45;;;;;;;13.55;5.38;;;10.30;99.90;;;;;;4981687;28;20045;-90
2021/10/13 08:20:14;;;;;;;12.65;5.03;;;10.30;99.90;;;;;;4993976;28;20050;-90
2021/10/13 08:22:49;;;;;;;12.05;5.75;;;10.40;99.90;;;;;;4990272;28;20046;-93
2021/10/13 08:25:24;;;;;;;19.83;6.78;;;10.50;99.90;;;;;;4990615;28;20042;-92
2021/10/13 08:27:56;;;;;;;17.95;5.30;;;10.50;99.90;;;;;;4959699;28;20047;-90
2021/10/13 08:30:27;;;;;;;17.63;6.78;;;10.60;99.90;;;;;;4990271;28;20053;-89
2021/10/13 08:33:03;;;;;;;17.58;6.78;;;10.70;99.90;;;;;;4996808;28;20050;-90
2021/10/13 08:35:32;;;;;;;14.37;6.23;;;10.80;99.90;;;;;;4979912;28;20052;-92
2021/10/13 08:38:01;;;;;;;18.13;6.88;;;10.80;99.90;;;;;;4995485;28;20266;-90
2021/10/13 08:41:17;;;;;;;17.77;7.20;;;10.90;99.90;;;;;;4993512;28;20053;-94
2021/10/13 08:44:16;;;;;;;20.52;6.88;;;11.00;99.90;;;;;;4989514;28;20058;-92
2021/10/13 08:46:44;;;;;;;16.52;8.20;;;11.10;99.90;;;;;;4986593;28;20060;-91
2021/10/13 08:49:15;;;;;;;11.30;5.13;;;11.40;99.90;;;;;;5007489;28;20061;-91
2021/10/13 08:51:45;;;;;;;17.75;6.75;;;11.70;99.90;;;;;;4976151;28;20050;-91
2021/10/13 08:54:17;;;;;;;16.67;6.47;;;11.30;99.90;;;;;;4971946;28;20509;-90
2021/10/13 08:56:45;;;;;;;;;;;11.30;99.90;;;;;;4988609;28;20046;-93
2021/10/13 08:59:40;;;;;;;17.60;6.07;;;10.80;99.90;;;;;;4988345;28;19933;-89
2021/10/13 09:02:12;;;;;;;14.82;5.95;;;11.50;99.90;;;;;;4954080;28;20062;-89
2021/10/13 09:05:02;;;;;;;17.98;7.13;;;11.70;99.90;;;;;;4996476;28;20069;-91
2021/10/13 09:07:41;;;;;;;;;;;11.70;99.90;;;;;;5002104;28;20070;-92
2021/10/13 09:10:15;;;;;;;15.30;5.68;;;11.70;99.90;;;;;;5019273;28;19932;-92
2021/10/13 09:12:45;;;;;;;14.65;6.65;;;11.80;99.90;;;;;;5032941;28;20068;-88
2021/10/13 09:15:16;;;;;;;17.33;6.35;;;11.90;99.90;;;;;;5000793;28;20416;-88
2021/10/13 09:17:57;;;;;;;15.60;6.60;;;11.90;99.90;;;;;;5010416;28;20057;-92
2021/10/13 09:20:27;;;;;;;;;;;12.00;99.90;;;;;;5022462;28;20156;-94
2021/10/13 09:23:29;;;;;;;17.95;4.72;;;12.00;99.90;;;;;;5011308;28;20774;-94
2021/10/13 09:26:11;;;;;;;16.77;5.20;;;12.20;99.90;;;;;;5018333;23;20050;-92
2021/10/13 09:28:57;;;;;;;13.85;6.18;;;12.20;99.90;;;;;;5018045;28;20060;-96
2021/10/13 09:31:31;;;;;;;13.80;4.93;;;12.40;99.90;;;;;;5004238;28;20034;-91
2021/10/13 09:34:04;;;;;;;19.70;4.60;;;12.40;99.90;;;;;;5006697;28;20519;-91
2021/10/13 09:36:58;;;;;;;10.75;4.90;;;12.40;99.90;;;;;;5021222;28;20603;-92
2021/10/13 09:39:29;;;;;;;16.30;5.57;;;12.20;99.90;;;;;;5013866;28;20058;-95
2021/10/13 09:42:07;;;;;;;15.75;4.82;;;12.40;99.90;;;;;;4982294;28;20052;-93
2021/10/13 09:44:43;;;;;;;10.75;4.50;;;12.50;99.90;;;;;;5019523;28;20049;-93
2021/10/13 09:47:39;;;;;;;14.10;6.22;;;12.40;99.90;;;;;;4976356;28;20060;-96
2021/10/13 09:50:19;;;;;;;10.95;3.65;;;12.40;99.90;;;;;;5025922;28;20042;-94
2021/10/13 09:52:53;;;;;;;9.30;4.65;;;12.30;99.90;;;;;;4987150;28;20168;-94
2021/10/13 09:55:36;;;;;;;12.98;5.35;;;12.30;99.90;;;;;;4969371;28;20049;-93
2021/10/13 09:58:25;;;;;;;16.47;5.37;;;11.90;99.90;;;;;;5002315;28;20517;-93
2021/10/13 10:01:18;;;;;;;12.93;4.38;;;12.20;99.90;;;;;;5026074;28;20762;-92
2021/10/13 10:03:54;;;;;;;15.77;4.80;;;12.20;99.90;;;;;;4993320;28;20076;-93
2021/10/13 10:06:31;;;;;;;14.18;5.53;;;12.30;99.90;;;;;;4980163;28;20049;-93
2021/10/13 10:09:27;;;;;;;17.27;5.80;;;12.30;99.90;;;;;;4971888;28;20057;-94
2021/10/13 10:12:11;;;;;;;17.98;5.95;;;12.40;99.90;;;;;;4981917;28;20057;-91
2021/10/13 10:15:10;;;;;;;16.95;6.13;;;12.40;99.90;;;;;;4968347;28;20042;-94
2021/10/13 10:17:40;;;;;;;19.15;5.65;;;12.50;99.90;;;;;;4983624;28;20054;-92
2021/10/13 10:20:37;;;;;;;11.40;5.20;;;12.50;99.90;;;;;;4999105;28;20710;-93
2021/10/13 10:23:29;;;;;;;25.88;6.10;;;12.60;99.90;;;;;;4996708;28;20058;-92
2021/10/13 10:26:21;;;;;;;13.65;6.10;;;12.60;99.90;;;;;;4970880;28;20055;-95
2021/10/13 10:28:55;;;;;;;20.13;7.03;;;12.70;99.90;;;;;;4974201;28;20046;-93
2021/10/13 10:31:36;;;;;;;18.85;6.25;;;12.70;99.90;;;;;;4999774;28;20054;-94
2021/10/13 10:34:07;;;;;;;16.10;5.47;;;12.80;99.90;;;;;;4985760;28;20050;-93
2021/10/13 10:36:45;;;;;;;15.20;6.25;;;12.80;99.90;;;;;;4975140;28;20061;-94
2021/10/13 10:39:57;;;;;;;15.10;6.13;;;12.90;99.90;;;;;;4978038;28;20057;-96
2021/10/13 10:42:50;;;;;;;13.75;7.93;;;12.60;99.90;;;;;;4976124;28;20046;-95
2021/10/13 10:45:54;;;;;;;19.05;6.60;;;13.00;99.90;;;;;;5008726;28;20056;-95
2021/10/13 10:48:48;;;;;;;13.02;5.93;;;13.10;99.90;;;;;;4959564;28;20054;-94
2021/10/13 10:51:18;;;;;;;29.95;6.80;;;12.10;99.90;;;;;;4965384;28;20342;-94
2021/10/13 10:54:33;;;;;;;15.50;6.22;;;13.20;99.90;;;;;;4977574;28;20053;-95
2021/10/13 10:57:33;;;;;;;14.20;5.57;;;13.30;99.90;;;;;;5005322;28;20061;-89
2021/10/13 11:00:08;;;;;;;14.05;6.78;;;12.00;99.90;;;;;;4975910;28;20056;-93
2021/10/13 11:03:21;;;;;;;18.05;4.93;;;13.40;99.90;;;;;;4980223;28;20054;-91
2021/10/13 11:06:40;;;;;;;12.77;5.70;;;13.50;99.90;;;;;;4964369;28;20055;-94
2021/10/13 11:09:30;;;;;;;19.17;5.78;;;13.60;99.90;;;;;;4966961;28;20054;-95
2021/10/13 11:12:06;;;;;;;16.08;7.32;;;13.30;99.90;;;;;;4979556;28;20061;-89
2021/10/13 11:14:49;;;;;;;16.35;5.03;;;13.80;99.90;;;;;;4974417;28;20061;-92
2021/10/13 11:17:24;;;;;;;13.82;5.53;;;13.90;99.90;;;;;;4971490;28;20057;-91
2021/10/13 11:20:09;;;;;;;13.25;5.47;;;13.90;99.90;;;;;;4987375;28;20058;-93
2021/10/13 11:23:02;;;;;;;13.55;6.72;;;14.00;99.90;;;;;;4979671;28;20043;-94
2021/10/13 11:25:54;;;;;;;;;;;14.00;99.90;;;;;;4998250;28;20054;-96
2021/10/13 11:28:46;;;;;;;10.10;3.70;;;14.10;99.90;;;;;;4995103;28;19922;-95
2021/10/13 11:32:18;;;;;;;16.73;4.97;;;14.40;99.90;;;;;;4982536;28;20053;-92
2021/10/13 11:35:49;;;;;;;10.05;4.47;;;14.40;99.90;;;;;;4978506;28;20071;-94
2021/10/13 12:17:13;;;;;;;;;;;;;;;;;;;;;
2021/10/13 12:21:04;;;;;;;5.53;2.60;;;16.20;99.90;;;;;;4851148;29;20054;-84
2021/10/13 12:24:33;;;;;;;8.13;2.70;;;16.40;99.90;;;;;;4834689;29;20125;-85
2021/10/13 12:28:09;;;;;;;;;;;;;;;;;;;;;
2021/10/13 12:30:40;;;;;;;9.27;2.67;;;16.50;99.90;;;;;;4788723;29;20043;-84
2021/10/13 12:33:58;;;;;;;7.50;2.88;;;16.50;99.90;;;;;;4753285;30;20048;-82
2021/10/13 12:50:20;;;;;;;;;;;;;;;;;;;;;
2021/10/13 12:54:21;;;;;;;8.57;2.97;;;17.10;99.90;;;;;;4810075;29;20067;-85
2021/10/13 12:57:42;;;;;;;10.60;2.92;;;16.90;99.90;;;;;;4810096;29;20066;-82
2021/10/13 13:40:42;;;;;;;5.45;1.98;;;17.40;99.90;;;;;;4935575;29;20174;-85
2021/10/13 13:47:34;;;;;;;;;;;;;;;;;;;;;
2021/10/13 13:50:28;;;;;;;8.85;2.17;;;17.20;99.90;;;;;;4983091;28;20050;-89
2021/10/13 13:53:06;;;;;;;8.88;2.42;;;17.30;99.90;;;;;;4984231;28;20058;-87
2021/10/13 13:56:02;;;;;;;5.93;1.85;;;17.30;99.90;;;;;;4977893;28;20054;-87
2021/10/13 13:58:45;;;;;;;9.77;2.53;;;17.40;99.90;;;;;;4987977;28;20055;-84
2021/10/13 14:10:18;;;;;;;19.17;3.55;;;17.50;99.90;;;;;;4929639;29;20059;-85
2021/10/13 14:12:53;;;;;;;9.55;2.58;;;17.40;99.90;;;;;;4930617;29;20048;-85
2021/10/13 14:15:52;;;;;;;8.15;3.72;;;16.50;99.90;;;;;;4888168;29;20053;-83
2021/10/13 14:18:24;;;;;;;12.75;3.70;;;17.40;99.90;;;;;;4889898;29;20079;-83
2021/10/13 14:20:56;;;;;;;10.10;3.20;;;17.30;99.90;;;;;;4902975;29;20110;-83
2021/10/13 14:23:50;;;;;;;7.45;3.83;;;17.20;99.90;;;;;;4898871;29;20078;-85
2021/10/13 14:26:36;;;;;;;6.00;2.50;;;17.20;99.90;;;;;;4896995;29;20052;-85
2021/10/13 14:29:16;;;;;;;10.88;3.67;;;17.10;99.90;;;;;;4893504;29;20049;-84
2021/10/13 14:32:51;;;;;;;;;;;;;;;;;;;;;
2021/10/13 14:36:14;;;;;;;11.25;4.43;;;16.90;99.90;;;;;;4972097;28;20050;-84
2021/10/13 14:39:13;;;;;;;16.75;4.90;;;16.80;99.90;;;;;;4975970;28;20050;-86
2021/10/13 14:41:49;;;;;;;8.90;3.30;;;16.70;99.90;;;;;;4971900;28;20062;-84
2021/10/13 14:44:32;;;;;;;7.65;3.17;;;15.70;99.90;;;;;;4950221;28;20515;-86
2021/10/13 14:50:17;;;;;;;11.73;4.20;;;16.40;99.90;;;;;;4950199;28;20590;-84
2021/10/13 15:03:01;;;;;;;9.13;3.72;;;16.20;99.90;;;;;;4942874;29;20312;-86
2021/10/13 15:06:34;;;;;;;12.95;4.53;;;16.30;99.90;;;;;;4884410;29;20225;-83
2021/10/13 15:09:35;;;;;;;12.98;4.20;;;16.20;99.90;;;;;;4885902;29;20068;-82
2021/10/13 15:12:05;;;;;;;9.93;4.82;;;16.20;99.90;;;;;;4861901;29;20049;-87
2021/10/13 15:14:41;;;;;;;10.00;4.22;;;16.30;99.90;;;;;;4885087;29;20049;-84
2021/10/13 15:17:21;;;;;;;8.85;4.03;;;15.60;99.90;;;;;;4888900;29;20059;-86
2021/10/13 15:20:14;;;;;;;10.63;4.63;;;16.30;99.90;;;;;;4869977;29;20054;-85
2021/10/13 15:24:06;;;;;;;;;;;;;;;;;;;;;
2021/10/13 15:35:40;;;;;;;10.40;4.55;;;16.50;99.90;;;;;;4889137;29;20074;-86
2021/10/13 15:38:09;;;;;;;9.77;4.68;;;16.30;99.90;;;;;;4963743;28;20070;-80
2021/10/13 15:40:39;;;;;;;9.85;3.90;;;16.40;99.90;;;;;;4968921;28;20053;-81
2021/10/13 15:43:09;;;;;;;12.07;3.58;;;16.50;99.90;;;;;;4985568;28;20050;-81
2021/10/13 15:45:44;;;;;;;6.88;3.13;;;16.30;99.90;;;;;;4966111;28;20058;-84
2021/10/13 15:48:23;;;;;;;8.63;3.22;;;16.10;99.90;;;;;;4966769;28;20046;-84
2021/10/13 15:51:45;;;;;;;10.80;3.85;;;16.30;99.90;;;;;;4979675;28;20080;-83
2021/10/13 15:55:41;;;;;;;11.75;3.50;;;15.30;99.90;;;;;;4864865;29;20050;-86
2021/10/13 16:08:05;;;;;;;12.20;3.88;;;16.30;99.90;;;;;;4862510;29;20069;-87
2021/10/13 16:11:12;;;;;;;11.50;4.45;;;16.20;99.90;;;;;;4885306;29;20099;-84
2021/10/13 16:13:42;;;;;;;6.35;3.38;;;16.20;99.90;;;;;;4880383;29;20067;-83
2021/10/13 16:16:14;;;;;;;7.15;3.38;;;16.10;99.90;;;;;;4870882;29;20359;-83
2021/10/13 16:18:52;;;;;;;7.07;3.20;;;16.20;99.90;;;;;;4906872;29;20050;-87
2021/10/13 16:21:39;;;;;;;8.88;4.20;;;16.20;99.90;;;;;;4917683;29;20048;-84
2021/10/13 16:24:12;;;;;;;14.70;4.07;;;16.10;99.90;;;;;;4924992;29;20040;-87
2021/10/13 16:26:44;;;;;;;10.35;4.32;;;16.10;99.90;;;;;;4890566;29;20064;-85
2021/10/13 16:29:14;;;;;;;13.13;5.05;;;16.10;99.90;;;;;;4914341;29;20047;-85
2021/10/13 16:31:48;;;;;;;12.48;3.90;;;16.10;99.90;;;;;;4920044;29;20516;-86
2021/10/13 16:34:42;;;;;;;8.05;3.78;;;16.10;99.90;;;;;;4876583;29;20052;-85
2021/10/13 16:38:00;;;;;;;10.60;4.00;;;16.10;99.90;;;;;;4912258;29;20047;-85
2021/10/13 16:41:18;;;;;;;10.43;3.35;;;16.20;99.90;;;;;;5014256;28;20046;-84
2021/10/13 16:45:09;;;;;;;9.02;4.72;;;16.00;99.90;;;;;;4906615;29;20048;-86
2021/10/13 16:48:15;;;;;;;7.65;3.30;;;16.10;99.90;;;;;;4923674;29;20058;-84
2021/10/13 16:51:05;;;;;;;9.25;3.90;;;14.90;99.90;;;;;;4901833;29;20060;-86
2021/10/13 16:54:08;;;;;;;7.97;3.47;;;16.00;99.90;;;;;;4920251;29;20071;-85
2021/10/13 16:57:12;;;;;;;10.13;5.03;;;16.00;99.90;;;;;;4928882;29;20051;-84
2021/10/13 16:59:56;;;;;;;13.18;4.20;;;15.90;99.90;;;;;;4927040;29;20583;-83
2021/10/13 17:02:31;;;;;;;13.30;3.50;;;15.90;99.90;;;;;;4939109;29;20099;-83
2021/10/13 17:05:13;;;;;;;11.73;4.07;;;15.90;99.90;;;;;;4943098;29;20463;-84
2021/10/13 17:07:50;;;;;;;11.18;3.53;;;15.90;99.90;;;;;;4942174;29;20488;-82
2021/10/13 17:11:45;;;;;;;;;;;;;;;;;;;;;
2021/10/13 17:14:51;;;;;;;14.02;5.03;;;14.90;99.90;;;;;;4901221;29;20048;-84
2021/10/13 17:17:49;;;;;;;12.52;4.88;;;15.80;99.90;;;;;;4902517;29;20045;-86
2021/10/13 17:20:25;;;;;;;15.10;5.55;;;15.70;99.90;;;;;;4894168;29;20051;-82
2021/10/13 17:23:33;;;;;;;9.10;4.45;;;15.20;99.90;;;;;;4926821;29;20064;-83
2021/10/13 17:26:34;;;;;;;10.20;4.35;;;15.80;99.90;;;;;;4929295;29;20059;-84
2021/10/13 17:29:17;;;;;;;;;;;;;;;;;;;;;
2021/10/13 17:32:09;;;;;;;10.32;3.90;;;15.80;99.90;;;;;;4976052;28;20057;-86
2021/10/13 17:38:30;;;;;;;7.95;3.78;;;15.60;99.90;;;;;;4926365;29;20081;-83
2021/10/13 17:41:27;;;;;;;8.10;4.15;;;15.60;99.90;;;;;;4925805;28;20051;-85
2021/10/13 17:44:02;;;;;;;10.48;4.90;;;15.50;99.90;;;;;;4965893;28;20047;-84
2021/10/13 17:46:33;;;;;;;11.25;5.22;;;15.50;99.90;;;;;;4949461;28;20511;-85
2021/10/13 17:49:20;;;;;;;10.13;4.22;;;15.50;99.90;;;;;;4945190;28;20049;-85
2021/10/13 17:53:01;;;;;;;12.75;5.75;;;15.50;99.90;;;;;;4965813;28;20065;-86
2021/10/13 17:59:45;;;;;;;;;;;;;;;;;;;;;
2021/10/13 18:02:23;;;;;;;12.15;5.57;;;15.50;99.90;;;;;;4896707;29;20070;-84
2021/10/13 18:04:52;;;;;;;15.23;6.03;;;15.40;99.90;;;;;;4901695;29;20513;-80
2021/10/13 18:07:31;;;;;;;9.95;4.80;;;15.40;99.90;;;;;;4930514;29;20297;-85
2021/10/13 18:10:17;;;;;;;9.75;4.57;;;15.40;99.90;;;;;;4921202;29;20044;-82
2021/10/13 18:13:01;;;;;;;8.48;4.68;;;15.40;99.90;;;;;;4934686;29;20047;-83
2021/10/13 18:15:39;;;;;;;11.38;4.53;;;15.40;99.90;;;;;;4904930;29;20056;-88
2021/10/13 18:22:14;;;;;;;11.18;5.10;;;15.40;99.90;;;;;;4884118;29;20053;-81
2021/10/13 18:25:52;;;;;;;13.40;4.95;;;15.40;99.90;;;;;;4916139;29;20056;-82
2021/10/13 18:28:38;;;;;;;10.25;4.70;;;15.40;99.90;;;;;;4892125;29;20048;-81
2021/10/13 18:31:07;;;;;;;13.20;5.43;;;15.20;99.90;;;;;;4922958;29;20625;-85
2021/10/13 18:33:37;;;;;;;11.52;5.57;;;15.20;99.90;;;;;;4945221;28;20049;-83
2021/10/13 18:36:05;;;;;;;10.70;4.80;;;15.20;99.90;;;;;;4965227;28;20058;-81
2021/10/13 18:38:40;;;;;;;9.02;5.07;;;15.20;99.90;;;;;;4950233;28;20047;-83
2021/10/13 18:41:08;;;;;;;11.48;5.65;;;15.20;99.90;;;;;;4979187;28;20058;-81
2021/10/13 18:43:37;;;;;;;14.88;6.55;;;15.10;99.90;;;;;;4981508;28;20043;-84
2021/10/13 18:46:08;;;;;;;14.98;5.95;;;15.40;99.90;;;;;;4979782;28;20050;-81
2021/10/13 18:48:41;;;;;;;12.25;6.13;;;15.10;99.90;;;;;;4964350;28;20061;-82
2021/10/13 18:51:11;;;;;;;12.48;5.47;;;15.10;99.90;;;;;;4967375;28;20122;-84
2021/10/13 18:53:49;;;;;;;14.70;4.93;;;15.10;99.90;;;;;;4952591;29;20416;-86
2021/10/13 18:56:17;;;;;;;14.75;5.05;;;15.00;99.90;;;;;;4953992;29;20055;-83
2021/10/13 18:58:51;;;;;;;11.52;5.97;;;15.00;99.90;;;;;;4986355;28;20073;-85
2021/10/13 19:01:22;;;;;;;14.00;5.50;;;15.00;99.90;;;;;;4954392;28;20042;-83
2021/10/13 19:03:51;;;;;;;11.35;5.72;;;14.90;99.90;;;;;;4995986;28;20050;-83